sensor_id;sensor_type;location;lat;lon;timestamp;pressure;altitude;pressure_sealevel;temperature;humidity
29909;BME280;36247;51.952;6.146;2023-05-08T00:00:26;101950.63;;;14.76;100.00
29909;BME280;36247;51.952;6.146;2023-05-08T00:02:51;101953.38;;;14.82;100.00
29909;BME280;36247;51.952;6.146;2023-05-08T00:05:17;101949.88;;;14.85;100.00
29909;BME280;36247;51.952;6.146;2023-05-08T00:07:43;101948.97;;;14.84;100.00
29909;BME280;36247;51.952;6.146;2023-05-08T00:10:10;101948.06;;;14.84;100.00
29909;BME280;36247;51.952;6.146;2023-05-08T00:12:36;101950.63;;;14.76;100.00
29909;BME280;36247;51.952;6.146;2023-05-08T00:15:02;101953.44;;;14.87;100.00
29909;BME280;36247;51.952;6.146;2023-05-08T00:17:28;101948.94;;;14.81;100.00
29909;BME280;36247;51.952;6.146;2023-05-08T00:19:53;101946.25;;;14.79;100.00
29909;BME280;36247;51.952;6.146;2023-05-08T00:22:19;101939.09;;;14.77;100.00
29909;BME280;36247;51.952;6.146;2023-05-08T00:24:44;101940.81;;;14.75;100.00
29909;BME280;36247;51.952;6.146;2023-05-08T00:27:13;101939.97;;;14.77;100.00
29909;BME280;36247;51.952;6.146;2023-05-08T00:29:39;101937.28;;;14.74;100.00
29909;BME280;36247;51.952;6.146;2023-05-08T00:32:06;101940.78;;;14.72;100.00
29909;BME280;36247;51.952;6.146;2023-05-08T00:34:32;101939.88;;;14.70;100.00
29909;BME280;36247;51.952;6.146;2023-05-08T00:36:57;101943.22;;;14.58;100.00
29909;BME280;36247;51.952;6.146;2023-05-08T00:39:23;101948.50;;;14.55;100.00
29909;BME280;36247;51.952;6.146;2023-05-08T00:41:49;101946.78;;;14.60;100.00
29909;BME280;36247;51.952;6.146;2023-05-08T00:44:14;101943.97;;;14.49;100.00
29909;BME280;36247;51.952;6.146;2023-05-08T00:46:40;101943.03;;;14.44;100.00
29909;BME280;36247;51.952;6.146;2023-05-08T00:49:07;101942.97;;;14.39;100.00
29909;BME280;36247;51.952;6.146;2023-05-08T00:51:35;101940.22;;;14.35;100.00
29909;BME280;36247;51.952;6.146;2023-05-08T00:54:01;101942.66;;;14.22;100.00
29909;BME280;36247;51.952;6.146;2023-05-08T00:56:28;101934.72;;;14.25;100.00
29909;BME280;36247;51.952;6.146;2023-05-08T00:58:57;101940.88;;;14.20;100.00
29909;BME280;36247;51.952;6.146;2023-05-08T01:01:23;101934.63;;;14.19;100.00
29909;BME280;36247;51.952;6.146;2023-05-08T01:03:49;101934.53;;;14.15;100.00
29909;BME280;36247;51.952;6.146;2023-05-08T01:06:15;101944.25;;;14.09;100.00
29909;BME280;36247;51.952;6.146;2023-05-08T01:08:43;101933.56;;;14.08;100.00
29909;BME280;36247;51.952;6.146;2023-05-08T01:30:28;101950.22;;;13.95;100.00
29909;BME280;36247;51.952;6.146;2023-05-08T01:33:02;101948.41;;;13.93;100.00
29909;BME280;36247;51.952;6.146;2023-05-08T01:35:46;101941.22;;;13.89;100.00
29909;BME280;36247;51.952;6.146;2023-05-08T01:38:21;101935.84;;;13.86;100.00
29909;BME280;36247;51.952;6.146;2023-05-08T01:40:53;101944.81;;;13.90;100.00
29909;BME280;36247;51.952;6.146;2023-05-08T01:43:28;101940.31;;;13.87;100.00
29909;BME280;36247;51.952;6.146;2023-05-08T01:45:58;101938.50;;;13.86;100.00
29909;BME280;36247;51.952;6.146;2023-05-08T01:48:31;101946.53;;;13.89;100.00
29909;BME280;36247;51.952;6.146;2023-05-08T01:51:07;101933.91;;;13.78;100.00
29909;BME280;36247;51.952;6.146;2023-05-08T01:53:42;101944.53;;;13.76;100.00
29909;BME280;36247;51.952;6.146;2023-05-08T01:56:12;101941.81;;;13.73;100.00
29909;BME280;36247;51.952;6.146;2023-05-08T01:58:40;101942.06;;;13.85;100.00
29909;BME280;36247;51.952;6.146;2023-05-08T02:01:07;101936.28;;;13.62;100.00
29909;BME280;36247;51.952;6.146;2023-05-08T02:03:36;101939.03;;;13.67;100.00
29909;BME280;36247;51.952;6.146;2023-05-08T02:06:07;101937.44;;;13.75;100.00
29909;BME280;36247;51.952;6.146;2023-05-08T02:08:35;101943.72;;;13.80;100.00
29909;BME280;36247;51.952;6.146;2023-05-08T02:11:06;101939.16;;;13.74;100.00
29909;BME280;36247;51.952;6.146;2023-05-08T02:13:34;101948.59;;;13.55;100.00
29909;BME280;36247;51.952;6.146;2023-05-08T02:16:01;101947.22;;;13.32;100.00
29909;BME280;36247;51.952;6.146;2023-05-08T02:18:28;101949.81;;;13.29;100.00
29909;BME280;36247;51.952;6.146;2023-05-08T02:20:58;101956.00;;;13.28;100.00
29909;BME280;36247;51.952;6.146;2023-05-08T02:23:27;101953.25;;;13.23;100.00
29909;BME280;36247;51.952;6.146;2023-05-08T02:25:53;101959.69;;;13.34;100.00
29909;BME280;36247;51.952;6.146;2023-05-08T02:28:21;101959.06;;;13.46;100.00
29909;BME280;36247;51.952;6.146;2023-05-08T02:30:49;101963.56;;;13.50;100.00
29909;BME280;36247;51.952;6.146;2023-05-08T02:33:17;101953.56;;;13.38;100.00
29909;BME280;36247;51.952;6.146;2023-05-08T02:35:44;101958.56;;;13.23;100.00
29909;BME280;36247;51.952;6.146;2023-05-08T02:38:12;101954.09;;;13.22;100.00
29909;BME280;36247;51.952;6.146;2023-05-08T02:40:45;101959.13;;;13.08;100.00
29909;BME280;36247;51.952;6.146;2023-05-08T02:43:12;101961.63;;;13.00;100.00
29909;BME280;36247;51.952;6.146;2023-05-08T02:45:42;101958.63;;;12.85;100.00
29909;BME280;36247;51.952;6.146;2023-05-08T02:48:17;101957.28;;;13.04;100.00
29909;BME280;36247;51.952;6.146;2023-05-08T02:50:55;101955.50;;;13.04;100.00
29909;BME280;36247;51.952;6.146;2023-05-08T02:53:30;101953.63;;;12.99;100.00
29909;BME280;36247;51.952;6.146;2023-05-08T02:56:04;101955.34;;;12.97;100.00
29909;BME280;36247;51.952;6.146;2023-05-08T02:58:47;101958.75;;;12.91;100.00
29909;BME280;36247;51.952;6.146;2023-05-08T03:01:23;101958.66;;;12.86;100.00
29909;BME280;36247;51.952;6.146;2023-05-08T03:04:04;101954.31;;;12.90;100.00
29909;BME280;36247;51.952;6.146;2023-05-08T03:06:44;101952.47;;;12.87;100.00
29909;BME280;36247;51.952;6.146;2023-05-08T03:09:16;101949.91;;;12.92;100.00
29909;BME280;36247;51.952;6.146;2023-05-08T03:11:44;101952.66;;;12.95;100.00
29909;BME280;36247;51.952;6.146;2023-05-08T03:14:13;101944.88;;;13.06;100.00
29909;BME280;36247;51.952;6.146;2023-05-08T03:16:44;101955.34;;;12.97;100.00
29909;BME280;36247;51.952;6.146;2023-05-08T03:19:20;101951.63;;;12.88;100.00
29909;BME280;36247;51.952;6.146;2023-05-08T03:21:48;101952.31;;;12.80;100.00
29909;BME280;36247;51.952;6.146;2023-05-08T03:24:17;101945.88;;;12.70;100.00
29909;BME280;36247;51.952;6.146;2023-05-08T03:26:45;101945.69;;;12.62;100.00
29909;BME280;36247;51.952;6.146;2023-05-08T03:29:13;101952.06;;;12.69;100.00
29909;BME280;36247;51.952;6.146;2023-05-08T03:31:41;101945.09;;;12.74;100.00
29909;BME280;36247;51.952;6.146;2023-05-08T03:34:07;101947.66;;;12.69;100.00
29909;BME280;36247;51.952;6.146;2023-05-08T03:36:35;101940.84;;;12.82;100.00
29909;BME280;36247;51.952;6.146;2023-05-08T03:39:01;101955.84;;;12.80;100.00
29909;BME280;36247;51.952;6.146;2023-05-08T03:41:28;101947.97;;;12.85;100.00
29909;BME280;36247;51.952;6.146;2023-05-08T03:43:54;101951.13;;;12.67;100.00
29909;BME280;36247;51.952;6.146;2023-05-08T03:46:20;101948.56;;;12.72;100.00
29909;BME280;36247;51.952;6.146;2023-05-08T03:48:48;101949.63;;;12.78;100.00
29909;BME280;36247;51.952;6.146;2023-05-08T03:51:16;101951.34;;;12.78;100.00
29909;BME280;36247;51.952;6.146;2023-05-08T03:53:45;101949.63;;;12.78;100.00
29909;BME280;36247;51.952;6.146;2023-05-08T03:56:12;101948.75;;;12.79;100.00
29909;BME280;36247;51.952;6.146;2023-05-08T03:58:47;101951.56;;;12.85;100.00
29909;BME280;36247;51.952;6.146;2023-05-08T04:06:49;101964.38;;;12.65;100.00
29909;BME280;36247;51.952;6.146;2023-05-08T04:12:14;101964.19;;;12.96;100.00
29909;BME280;36247;51.952;6.146;2023-05-08T04:15:03;101957.84;;;12.89;100.00
29909;BME280;36247;51.952;6.146;2023-05-08T04:20:03;101948.13;;;12.91;100.00
29909;BME280;36247;51.952;6.146;2023-05-08T04:22:34;101950.81;;;12.93;100.00
29909;BME280;36247;51.952;6.146;2023-05-08T04:25:06;101949.94;;;12.94;100.00
29909;BME280;36247;51.952;6.146;2023-05-08T04:27:34;101945.44;;;12.91;100.00
29909;BME280;36247;51.952;6.146;2023-05-08T04:30:01;101947.94;;;12.83;100.00
29909;BME280;36247;51.952;6.146;2023-05-08T04:32:30;101952.56;;;12.92;100.00
29909;BME280;36247;51.952;6.146;2023-05-08T04:35:01;101950.84;;;12.94;100.00
29909;BME280;36247;51.952;6.146;2023-05-08T04:37:28;101950.81;;;12.93;100.00
29909;BME280;36247;51.952;6.146;2023-05-08T04:39:59;101952.44;;;12.86;100.00
29909;BME280;36247;51.952;6.146;2023-05-08T04:42:25;101939.81;;;12.76;100.00
29909;BME280;36247;51.952;6.146;2023-05-08T04:44:53;101952.38;;;12.83;100.00
29909;BME280;36247;51.952;6.146;2023-05-08T04:47:19;101942.09;;;13.00;100.00
29909;BME280;36247;51.952;6.146;2023-05-08T04:49:45;101947.75;;;13.14;100.00
29909;BME280;36247;51.952;6.146;2023-05-08T04:52:11;101949.16;;;12.98;100.00
29909;BME280;36247;51.952;6.146;2023-05-08T04:54:37;101952.06;;;13.10;100.00
29909;BME280;36247;51.952;6.146;2023-05-08T04:57:03;101955.72;;;13.14;100.00
29909;BME280;36247;51.952;6.146;2023-05-08T04:59:28;101965.63;;;13.22;100.00
29909;BME280;36247;51.952;6.146;2023-05-08T05:01:55;101966.56;;;13.25;100.00
29909;BME280;36247;51.952;6.146;2023-05-08T05:04:21;101966.00;;;13.38;100.00
29909;BME280;36247;51.952;6.146;2023-05-08T05:06:47;101968.88;;;13.49;100.00
29909;BME280;36247;51.952;6.146;2023-05-08T05:09:13;101971.63;;;13.53;100.00
29909;BME280;36247;51.952;6.146;2023-05-08T05:11:39;101970.91;;;13.62;100.00
29909;BME280;36247;51.952;6.146;2023-05-08T05:14:06;101975.41;;;13.65;100.00
29909;BME280;36247;51.952;6.146;2023-05-08T05:16:32;101985.09;;;13.63;100.00
29909;BME280;36247;51.952;6.146;2023-05-08T05:18:58;101982.53;;;13.67;100.00
29909;BME280;36247;51.952;6.146;2023-05-08T05:21:24;101985.94;;;13.58;100.00
29909;BME280;36247;51.952;6.146;2023-05-08T05:23:50;101983.13;;;13.52;100.00
29909;BME280;36247;51.952;6.146;2023-05-08T05:26:17;101980.56;;;13.55;100.00
29909;BME280;36247;51.952;6.146;2023-05-08T05:28:43;101992.28;;;13.67;100.00
29909;BME280;36247;51.952;6.146;2023-05-08T05:31:09;101987.41;;;13.88;100.00
29909;BME280;36247;51.952;6.146;2023-05-08T05:33:36;101992.00;;;13.99;100.00
29909;BME280;36247;51.952;6.146;2023-05-08T05:36:03;101994.66;;;13.99;100.00
29909;BME280;36247;51.952;6.146;2023-05-08T05:38:28;101999.69;;;13.82;100.00
29909;BME280;36247;51.952;6.146;2023-05-08T05:40:54;101991.06;;;13.97;100.00
29909;BME280;36247;51.952;6.146;2023-05-08T05:43:19;101992.84;;;13.95;100.00
29909;BME280;36247;51.952;6.146;2023-05-08T05:45:45;101991.06;;;13.97;100.00
29909;BME280;36247;51.952;6.146;2023-05-08T05:48:12;101993.25;;;14.19;100.00
29909;BME280;36247;51.952;6.146;2023-05-08T05:50:39;101998.72;;;14.27;100.00
29909;BME280;36247;51.952;6.146;2023-05-08T05:53:06;101993.31;;;14.22;100.00
29909;BME280;36247;51.952;6.146;2023-05-08T05:55:31;101990.66;;;14.24;100.00
29909;BME280;36247;51.952;6.146;2023-05-08T05:57:59;101993.50;;;14.33;100.00
29909;BME280;36247;51.952;6.146;2023-05-08T06:00:25;101991.13;;;14.52;100.00
29909;BME280;36247;51.952;6.146;2023-05-08T06:02:54;102003.97;;;14.76;100.00
29909;BME280;36247;51.952;6.146;2023-05-08T06:05:20;102009.03;;;14.59;100.00
29909;BME280;36247;51.952;6.146;2023-05-08T06:07:47;102006.28;;;14.54;100.00
29909;BME280;36247;51.952;6.146;2023-05-08T06:10:13;101998.47;;;14.65;100.00
29909;BME280;36247;51.952;6.146;2023-05-08T06:12:39;101995.97;;;14.76;100.00
29909;BME280;36247;51.952;6.146;2023-05-08T06:15:06;101992.31;;;14.68;100.00
29909;BME280;36247;51.952;6.146;2023-05-08T06:17:32;102006.03;;;14.94;100.00
29909;BME280;36247;51.952;6.146;2023-05-08T06:19:58;101994.47;;;14.95;100.00
29909;BME280;36247;51.952;6.146;2023-05-08T06:22:24;101996.16;;;14.88;100.00
29909;BME280;36247;51.952;6.146;2023-05-08T06:24:50;102000.41;;;14.74;100.00
29909;BME280;36247;51.952;6.146;2023-05-08T06:27:19;102001.69;;;14.45;100.00
29909;BME280;36247;51.952;6.146;2023-05-08T06:29:49;101997.34;;;14.52;100.00
29909;BME280;36247;51.952;6.146;2023-05-08T06:32:19;102004.75;;;14.69;100.00
29909;BME280;36247;51.952;6.146;2023-05-08T06:34:44;102006.66;;;14.77;100.00
29909;BME280;36247;51.952;6.146;2023-05-08T06:37:10;102018.53;;;14.98;100.00
29909;BME280;36247;51.952;6.146;2023-05-08T06:39:36;102014.16;;;15.05;100.00
29909;BME280;36247;51.952;6.146;2023-05-08T06:42:02;102018.88;;;15.21;100.00
29909;BME280;36247;51.952;6.146;2023-05-08T06:44:35;102014.16;;;15.05;100.00
29909;BME280;36247;51.952;6.146;2023-05-08T06:47:01;102015.22;;;15.14;100.00
29909;BME280;36247;51.952;6.146;2023-05-08T06:49:28;102010.34;;;15.50;100.00
29909;BME280;36247;51.952;6.146;2023-05-08T06:51:54;102010.03;;;15.28;100.00
29909;BME280;36247;51.952;6.146;2023-05-08T06:54:19;102010.91;;;15.24;100.00
29909;BME280;36247;51.952;6.146;2023-05-08T06:56:45;102007.66;;;15.50;100.00
29909;BME280;36247;51.952;6.146;2023-05-08T06:59:11;102010.22;;;15.39;100.00
29909;BME280;36247;51.952;6.146;2023-05-08T07:01:37;102011.13;;;15.43;100.00
29909;BME280;36247;51.952;6.146;2023-05-08T07:04:03;102004.38;;;15.76;100.00
29909;BME280;36247;51.952;6.146;2023-05-08T07:06:31;101996.31;;;15.71;100.00
29909;BME280;36247;51.952;6.146;2023-05-08T07:08:57;101996.38;;;15.77;100.00
29909;BME280;36247;51.952;6.146;2023-05-08T07:11:24;101992.91;;;15.80;100.00
29909;BME280;36247;51.952;6.146;2023-05-08T07:13:50;101992.22;;;16.02;100.00
29909;BME280;36247;51.952;6.146;2023-05-08T07:16:18;101998.41;;;15.97;100.00
29909;BME280;36247;51.952;6.146;2023-05-08T07:18:44;101999.66;;;15.51;100.00
29909;BME280;36247;51.952;6.146;2023-05-08T07:21:09;102010.50;;;15.64;100.00
29909;BME280;36247;51.952;6.146;2023-05-08T07:23:35;102002.81;;;15.90;100.00
29909;BME280;36247;51.952;6.146;2023-05-08T07:26:01;102007.16;;;15.83;100.00
29909;BME280;36247;51.952;6.146;2023-05-08T07:28:28;102006.00;;;15.63;100.00
29909;BME280;36247;51.952;6.146;2023-05-08T07:30:54;102006.00;;;15.61;100.00
29909;BME280;36247;51.952;6.146;2023-05-08T07:33:19;102011.66;;;15.86;100.00
29909;BME280;36247;51.952;6.146;2023-05-08T07:35:45;102017.03;;;15.89;100.00
29909;BME280;36247;51.952;6.146;2023-05-08T07:38:12;102013.47;;;15.87;100.00
29909;BME280;36247;51.952;6.146;2023-05-08T07:40:37;102010.72;;;15.81;100.00
29909;BME280;36247;51.952;6.146;2023-05-08T07:43:03;102011.63;;;15.83;100.00
29909;BME280;36247;51.952;6.146;2023-05-08T07:45:29;102014.50;;;16.03;100.00
29909;BME280;36247;51.952;6.146;2023-05-08T07:47:56;102016.19;;;15.92;100.00
29909;BME280;36247;51.952;6.146;2023-05-08T07:50:24;102007.28;;;15.96;100.00
29909;BME280;36247;51.952;6.146;2023-05-08T07:52:51;102009.31;;;16.18;100.00
29909;BME280;36247;51.952;6.146;2023-05-08T07:55:18;102009.13;;;16.01;100.00
29909;BME280;36247;51.952;6.146;2023-05-08T07:57:44;102001.28;;;16.17;100.00
29909;BME280;36247;51.952;6.146;2023-05-08T08:00:12;102004.84;;;16.19;100.00
29909;BME280;36247;51.952;6.146;2023-05-08T08:02:41;102005.84;;;16.27;100.00
29909;BME280;36247;51.952;6.146;2023-05-08T08:05:07;102002.56;;;16.65;100.00
29909;BME280;36247;51.952;6.146;2023-05-08T08:07:33;101999.06;;;16.75;100.00
29909;BME280;36247;51.952;6.146;2023-05-08T08:10:01;102010.19;;;16.16;100.00
29909;BME280;36247;51.952;6.146;2023-05-08T08:12:29;101997.97;;;16.46;100.00
29909;BME280;36247;51.952;6.146;2023-05-08T08:14:56;101996.31;;;16.63;100.00
29909;BME280;36247;51.952;6.146;2023-05-08T08:17:22;101997.22;;;16.65;100.00
29909;BME280;36247;51.952;6.146;2023-05-08T08:19:47;101996.28;;;16.60;100.00
29909;BME280;36247;51.952;6.146;2023-05-08T08:22:16;102013.22;;;16.57;100.00
29909;BME280;36247;51.952;6.146;2023-05-08T08:24:43;102022.84;;;16.35;100.00
29909;BME280;36247;51.952;6.146;2023-05-08T08:27:10;102028.22;;;16.42;100.00
29909;BME280;36247;51.952;6.146;2023-05-08T08:29:36;102022.69;;;16.18;100.00
29909;BME280;36247;51.952;6.146;2023-05-08T08:32:01;102025.44;;;16.26;100.00
29909;BME280;36247;51.952;6.146;2023-05-08T08:34:28;102017.53;;;16.42;100.00
29909;BME280;36247;51.952;6.146;2023-05-08T08:36:54;102012.41;;;16.69;100.00
29909;BME280;36247;51.952;6.146;2023-05-08T08:39:19;102007.97;;;16.74;100.00
29909;BME280;36247;51.952;6.146;2023-05-08T08:41:45;102012.28;;;16.55;100.00
29909;BME280;36247;51.952;6.146;2023-05-08T08:44:11;102003.47;;;16.67;100.00
29909;BME280;36247;51.952;6.146;2023-05-08T08:46:43;102010.69;;;16.84;100.00
29909;BME280;36247;51.952;6.146;2023-05-08T08:49:12;101996.63;;;17.09;100.00
29909;BME280;36247;51.952;6.146;2023-05-08T08:51:50;101990.47;;;17.26;100.00
29909;BME280;36247;51.952;6.146;2023-05-08T08:54:22;102001.97;;;17.03;100.00
29909;BME280;36247;51.952;6.146;2023-05-08T08:56:50;101992.84;;;16.77;100.00
29909;BME280;36247;51.952;6.146;2023-05-08T08:59:18;101986.81;;;17.13;100.00
29909;BME280;36247;51.952;6.146;2023-05-08T09:01:47;101988.78;;;17.56;100.00
29909;BME280;36247;51.952;6.146;2023-05-08T09:04:12;101989.72;;;17.70;100.00
29909;BME280;36247;51.952;6.146;2023-05-08T09:06:38;101987.94;;;17.66;100.00
29909;BME280;36247;51.952;6.146;2023-05-08T09:09:07;101979.09;;;18.01;100.00
29909;BME280;36247;51.952;6.146;2023-05-08T09:11:35;101970.16;;;18.14;100.00
29909;BME280;36247;51.952;6.146;2023-05-08T09:14:01;101973.72;;;18.04;100.00
29909;BME280;36247;51.952;6.146;2023-05-08T09:16:29;101971.94;;;18.62;100.00
29909;BME280;36247;51.952;6.146;2023-05-08T09:18:54;101981.75;;;18.74;100.00
29909;BME280;36247;51.952;6.146;2023-05-08T09:21:20;101967.50;;;18.39;100.00
29909;BME280;36247;51.952;6.146;2023-05-08T09:23:54;101975.50;;;18.35;100.00
29909;BME280;36247;51.952;6.146;2023-05-08T09:26:33;101975.53;;;18.42;100.00
29909;BME280;36247;51.952;6.146;2023-05-08T09:29:10;101979.06;;;18.72;100.00
29909;BME280;36247;51.952;6.146;2023-05-08T09:31:37;101972.78;;;18.99;100.00
29909;BME280;36247;51.952;6.146;2023-05-08T09:34:07;101970.09;;;19.01;100.00
29909;BME280;36247;51.952;6.146;2023-05-08T09:36:33;101971.00;;;18.94;100.00
29909;BME280;36247;51.952;6.146;2023-05-08T09:39:01;101970.13;;;18.64;100.00
29909;BME280;36247;51.952;6.146;2023-05-08T09:41:27;101979.88;;;19.17;100.00
29909;BME280;36247;51.952;6.146;2023-05-08T09:44:07;101973.63;;;19.15;100.00
29909;BME280;36247;51.952;6.146;2023-05-08T09:46:33;101983.50;;;19.04;100.00
29909;BME280;36247;51.952;6.146;2023-05-08T09:49:00;101983.47;;;19.13;100.00
29909;BME280;36247;51.952;6.146;2023-05-08T09:51:29;101988.00;;;18.88;100.00
29909;BME280;36247;51.952;6.146;2023-05-08T09:53:57;101985.25;;;19.14;100.00
29909;BME280;36247;51.952;6.146;2023-05-08T09:56:33;101986.13;;;19.21;100.00
29909;BME280;36247;51.952;6.146;2023-05-08T09:58:59;101988.78;;;19.32;100.00
29909;BME280;36247;51.952;6.146;2023-05-08T10:01:35;101983.19;;;19.78;100.00
29909;BME280;36247;51.952;6.146;2023-05-08T10:04:02;101984.03;;;19.83;100.00
29909;BME280;36247;51.952;6.146;2023-05-08T10:06:29;101975.88;;;19.99;100.00
29909;BME280;36247;51.952;6.146;2023-05-08T10:09:12;101978.56;;;19.97;100.00
29909;BME280;36247;51.952;6.146;2023-05-08T10:11:40;101980.94;;;20.37;100.00
29909;BME280;36247;51.952;6.146;2023-05-08T10:14:07;101975.09;;;19.81;100.00
29909;BME280;36247;51.952;6.146;2023-05-08T10:16:43;101971.91;;;21.28;100.00
29909;BME280;36247;51.952;6.146;2023-05-08T10:19:15;101967.22;;;22.08;100.00
29909;BME280;36247;51.952;6.146;2023-05-08T10:21:45;101968.16;;;20.66;100.00
29909;BME280;36247;51.952;6.146;2023-05-08T10:24:25;101972.53;;;20.76;100.00
29909;BME280;36247;51.952;6.146;2023-05-08T10:29:50;101977.91;;;21.54;100.00
29909;BME280;36247;51.952;6.146;2023-05-08T10:32:19;101979.72;;;21.55;100.00
29909;BME280;36247;51.952;6.146;2023-05-08T10:34:50;101985.50;;;20.31;100.00
29909;BME280;36247;51.952;6.146;2023-05-08T10:37:17;101975.44;;;20.51;100.00
29909;BME280;36247;51.952;6.146;2023-05-08T10:39:44;101977.25;;;20.48;100.00
29909;BME280;36247;51.952;6.146;2023-05-08T10:42:14;101975.75;;;20.16;100.00
29909;BME280;36247;51.952;6.146;2023-05-08T10:44:40;101975.00;;;20.99;100.00
29909;BME280;36247;51.952;6.146;2023-05-08T10:53:18;101959.16;;;21.43;100.00
29909;BME280;36247;51.952;6.146;2023-05-08T10:55:46;101959.19;;;23.49;100.00
29909;BME280;36247;51.952;6.146;2023-05-08T11:03:25;101956.63;;;23.42;100.00
29909;BME280;36247;51.952;6.146;2023-05-08T11:05:52;101967.03;;;22.70;100.00
29909;BME280;36247;51.952;6.146;2023-05-08T11:08:25;101957.09;;;22.21;100.00
29909;BME280;36247;51.952;6.146;2023-05-08T11:13:31;101954.88;;;22.48;100.00
29909;BME280;36247;51.952;6.146;2023-05-08T11:15:58;101957.00;;;22.26;100.00
29909;BME280;36247;51.952;6.146;2023-05-08T11:18:24;101955.22;;;21.69;100.00
29909;BME280;36247;51.952;6.146;2023-05-08T11:21:05;101947.50;;;22.58;100.00
29909;BME280;36247;51.952;6.146;2023-05-08T11:23:38;101942.47;;;22.36;100.00
29909;BME280;36247;51.952;6.146;2023-05-08T11:26:12;101937.88;;;23.33;100.00
29909;BME280;36247;51.952;6.146;2023-05-08T11:28:55;101939.94;;;23.22;100.00
29909;BME280;36247;51.952;6.146;2023-05-08T11:31:22;101938.22;;;22.73;100.00
29909;BME280;36247;51.952;6.146;2023-05-08T11:33:48;101938.63;;;23.40;100.00
29909;BME280;36247;51.952;6.146;2023-05-08T11:36:16;101934.63;;;23.58;100.00
29909;BME280;36247;51.952;6.146;2023-05-08T11:38:43;101935.63;;;23.13;100.00
29909;BME280;36247;51.952;6.146;2023-05-08T11:41:20;101931.88;;;22.24;100.00
29909;BME280;36247;51.952;6.146;2023-05-08T11:46:53;101937.69;;;21.97;100.00
29909;BME280;36247;51.952;6.146;2023-05-08T11:49:21;101936.13;;;21.84;100.00
29909;BME280;36247;51.952;6.146;2023-05-08T11:51:49;101941.38;;;21.93;100.00
29909;BME280;36247;51.952;6.146;2023-05-08T11:54:19;101933.50;;;21.78;100.00
29909;BME280;36247;51.952;6.146;2023-05-08T11:56:50;101931.84;;;21.71;100.00
29909;BME280;36247;51.952;6.146;2023-05-08T11:59:17;101928.00;;;21.87;100.00
29909;BME280;36247;51.952;6.146;2023-05-08T12:01:43;101924.09;;;21.44;100.00
29909;BME280;36247;51.952;6.146;2023-05-08T12:04:11;101932.44;;;21.27;100.00
29909;BME280;36247;51.952;6.146;2023-05-08T12:06:38;101928.81;;;21.27;100.00
29909;BME280;36247;51.952;6.146;2023-05-08T12:09:14;101943.91;;;20.63;100.00
29909;BME280;36247;51.952;6.146;2023-05-08T12:11:42;101933.38;;;20.41;100.00
29909;BME280;36247;51.952;6.146;2023-05-08T12:14:11;101939.22;;;20.85;100.00
29909;BME280;36247;51.952;6.146;2023-05-08T12:16:38;101934.72;;;20.85;100.00
29909;BME280;36247;51.952;6.146;2023-05-08T12:19:09;101935.31;;;21.12;100.00
29909;BME280;36247;51.952;6.146;2023-05-08T12:21:35;101937.47;;;21.54;100.00
29909;BME280;36247;51.952;6.146;2023-05-08T12:24:06;101925.69;;;22.68;100.00
29909;BME280;36247;51.952;6.146;2023-05-08T12:26:36;101928.44;;;23.09;100.00
29909;BME280;36247;51.952;6.146;2023-05-08T12:29:05;101929.78;;;21.87;100.00
29909;BME280;36247;51.952;6.146;2023-05-08T12:31:36;101930.19;;;21.60;100.00
29909;BME280;36247;51.952;6.146;2023-05-08T12:34:06;101937.06;;;20.31;100.00
29909;BME280;36247;51.952;6.146;2023-05-08T12:36:34;101928.81;;;20.48;100.00
29909;BME280;36247;51.952;6.146;2023-05-08T12:39:11;101929.75;;;21.23;100.00
29909;BME280;36247;51.952;6.146;2023-05-08T12:41:50;101926.44;;;21.04;100.00
29909;BME280;36247;51.952;6.146;2023-05-08T12:44:23;101929.03;;;22.33;100.00
29909;BME280;36247;51.952;6.146;2023-05-08T12:46:53;101919.38;;;22.16;100.00
29909;BME280;36247;51.952;6.146;2023-05-08T12:49:30;101923.63;;;21.13;100.00
29909;BME280;36247;51.952;6.146;2023-05-08T12:52:07;101918.00;;;21.30;100.00
29909;BME280;36247;51.952;6.146;2023-05-08T12:54:38;101919.31;;;20.98;100.00
29909;BME280;36247;51.952;6.146;2023-05-08T12:57:11;101913.88;;;21.03;100.00
29909;BME280;36247;51.952;6.146;2023-05-08T12:59:37;101911.47;;;20.76;100.00
29909;BME280;36247;51.952;6.146;2023-05-08T13:02:03;101914.22;;;20.73;100.00
29909;BME280;36247;51.952;6.146;2023-05-08T13:04:36;101908.75;;;20.83;100.00
29909;BME280;36247;51.952;6.146;2023-05-08T13:07:02;101908.34;;;20.30;100.00
29909;BME280;36247;51.952;6.146;2023-05-08T13:09:28;101903.53;;;20.61;100.00
29909;BME280;36247;51.952;6.146;2023-05-08T13:11:55;101901.91;;;20.46;100.00
29909;BME280;36247;51.952;6.146;2023-05-08T13:14:21;101897.50;;;20.39;100.00
29909;BME280;36247;51.952;6.146;2023-05-08T13:16:46;101903.47;;;20.70;100.00
29909;BME280;36247;51.952;6.146;2023-05-08T13:19:13;101890.97;;;20.63;100.00
29909;BME280;36247;51.952;6.146;2023-05-08T13:21:40;101897.34;;;20.54;100.00
29909;BME280;36247;51.952;6.146;2023-05-08T13:24:10;101895.81;;;20.29;100.00
29909;BME280;36247;51.952;6.146;2023-05-08T13:26:36;101891.00;;;20.58;100.00
29909;BME280;36247;51.952;6.146;2023-05-08T13:29:01;101890.75;;;20.83;100.00
29909;BME280;36247;51.952;6.146;2023-05-08T13:31:27;101894.97;;;21.06;100.00
29909;BME280;36247;51.952;6.146;2023-05-08T13:33:52;101888.53;;;21.16;100.00
29909;BME280;36247;51.952;6.146;2023-05-08T13:36:18;101874.88;;;21.28;100.00